KQA200 HKJK-KJFK
Flight info
| Callsign | KQA200 |
|---|---|
| Flight time | N/A |
| Altitude | 30000 |
| Route | APKUB1A APKUB UQ293 EKMOG DCT NN UW325 SIPKI UT325 BUN UG862 ONUDA/N0508F320 UG862 DIR UB730 BOD/N0491F340 UB730 MNA UM999 XAVOV UL58 ARI UN726 BAMBA N726 ORTOP DCT SONAP DCT KOMUT/M084F340 DCT 39N020W 41N030W/M084F360 43N040W 44N050W DCT JAROM/M084F380 DCT LOMPI/N0480F380 DCT TUSKY DCT PLYMM PARCH3 |
| Aircraft | B77W/H-SDE1E2E3FGHIJ2J3J4J5M1RWXY/LB1D1 |
Departure
| Time | 2026-04-28 11:36 |
|---|---|
| Airport | Jomo Kenyatta International Airport (HKJK) |
Arrival
| Time | N/A |
|---|---|
| Airport | John F. Kennedy International Airport (KJFK) |
| Time | Latitude | Longitude | Altitude | Speed | Heading |
|---|---|---|---|---|---|
| 2026-04-28 10:25 | -1.33168 | 36.92334 | 5341 ft | 0 kts | 56° |
| 2026-04-28 11:18 | -1.33171 | 36.92330 | 5341 ft | 2 kts | 56° |
| 2026-04-28 11:18 | -1.33181 | 36.92315 | 5341 ft | 3 kts | 60° |
| 2026-04-28 11:18 | -1.33189 | 36.92298 | 5341 ft | 3 kts | 70° |
| 2026-04-28 11:19 | -1.33194 | 36.92278 | 5341 ft | 3 kts | 81° |
| 2026-04-28 11:19 | -1.33196 | 36.92257 | 5341 ft | 3 kts | 92° |
| 2026-04-28 11:19 | -1.33193 | 36.92237 | 5341 ft | 3 kts | 103° |
| 2026-04-28 11:19 | -1.33190 | 36.92225 | 5341 ft | 0 kts | 108° |
| 2026-04-28 11:21 | -1.33190 | 36.92226 | 5341 ft | 0 kts | 108° |
| 2026-04-28 11:23 | -1.33192 | 36.92232 | 5341 ft | 3 kts | 108° |
| 2026-04-28 11:23 | -1.33195 | 36.92241 | 5341 ft | 0 kts | 109° |
| 2026-04-28 11:23 | -1.33199 | 36.92250 | 5341 ft | 4 kts | 114° |
| 2026-04-28 11:24 | -1.33222 | 36.92271 | 5341 ft | 4 kts | 155° |
| 2026-04-28 11:24 | -1.33251 | 36.92277 | 5341 ft | 3 kts | 171° |
| 2026-04-28 11:24 | -1.33262 | 36.92278 | 5341 ft | 4 kts | 173° |
| 2026-04-28 11:24 | -1.33314 | 36.92283 | 5341 ft | 9 kts | 175° |
| 2026-04-28 11:25 | -1.33352 | 36.92293 | 5341 ft | 2 kts | 160° |
| 2026-04-28 11:25 | -1.33355 | 36.92294 | 5341 ft | 2 kts | 158° |
| 2026-04-28 11:25 | -1.33387 | 36.92313 | 5341 ft | 9 kts | 147° |
| 2026-04-28 11:25 | -1.33439 | 36.92341 | 5341 ft | 5 kts | 175° |
| 2026-04-28 11:26 | -1.33457 | 36.92333 | 5341 ft | 3 kts | 220° |
| 2026-04-28 11:26 | -1.33476 | 36.92313 | 5341 ft | 2 kts | 227° |
| 2026-04-28 11:26 | -1.33477 | 36.92312 | 5341 ft | 0 kts | 227° |
| 2026-04-28 11:26 | -1.33481 | 36.92307 | 5341 ft | 3 kts | 227° |
| 2026-04-28 11:27 | -1.33507 | 36.92274 | 5341 ft | 7 kts | 234° |
| 2026-04-28 11:27 | -1.33525 | 36.92227 | 5341 ft | 7 kts | 278° |
| 2026-04-28 11:27 | -1.33515 | 36.92204 | 5341 ft | 5 kts | 303° |
| 2026-04-28 11:27 | -1.33475 | 36.92168 | 5341 ft | 6 kts | 324° |
| 2026-04-28 11:28 | -1.33422 | 36.92130 | 5341 ft | 10 kts | 324° |
| 2026-04-28 11:28 | -1.33390 | 36.92106 | 5341 ft | 7 kts | 324° |
| 2026-04-28 11:28 | -1.33354 | 36.92080 | 5341 ft | 0 kts | 323° |
| 2026-04-28 11:28 | -1.33342 | 36.92071 | 5341 ft | 6 kts | 323° |
| 2026-04-28 11:29 | -1.33319 | 36.92054 | 5341 ft | 5 kts | 323° |
| 2026-04-28 11:29 | -1.33296 | 36.92037 | 5341 ft | 1 kts | 323° |
| 2026-04-28 11:29 | -1.33288 | 36.92032 | 5341 ft | 4 kts | 323° |
| 2026-04-28 11:29 | -1.33244 | 36.91999 | 5341 ft | 12 kts | 323° |
| 2026-04-28 11:30 | -1.33166 | 36.91942 | 5341 ft | 14 kts | 323° |
| 2026-04-28 11:30 | -1.33031 | 36.91843 | 5341 ft | 8 kts | 324° |
| 2026-04-28 11:30 | -1.32950 | 36.91785 | 5341 ft | 12 kts | 324° |
| 2026-04-28 11:31 | -1.32907 | 36.91755 | 5341 ft | 11 kts | 324° |
| 2026-04-28 11:31 | -1.32863 | 36.91724 | 5341 ft | 6 kts | 324° |
| 2026-04-28 11:31 | -1.32822 | 36.91694 | 5341 ft | 6 kts | 324° |
| 2026-04-28 11:31 | -1.32780 | 36.91665 | 5341 ft | 5 kts | 324° |
| 2026-04-28 11:32 | -1.32769 | 36.91658 | 5341 ft | 1 kts | 331° |
| 2026-04-28 11:32 | -1.32753 | 36.91656 | 5341 ft | 4 kts | 4° |
| 2026-04-28 11:32 | -1.32741 | 36.91663 | 5341 ft | 1 kts | 35° |
| 2026-04-28 11:32 | -1.32726 | 36.91683 | 5341 ft | 0 kts | 54° |
| 2026-04-28 11:33 | -1.32725 | 36.91683 | 5341 ft | 0 kts | 54° |
| 2026-04-28 11:34 | -1.32724 | 36.91686 | 5341 ft | 3 kts | 54° |
| 2026-04-28 11:34 | -1.32668 | 36.91761 | 5341 ft | 35 kts | 54° |
| 2026-04-28 11:35 | -1.32401 | 36.92126 | 5342 ft | 95 kts | 55° |
| 2026-04-28 11:35 | -1.31897 | 36.92822 | 5342 ft | 151 kts | 52° |
| 2026-04-28 11:35 | -1.31171 | 36.93819 | 5342 ft | 200 kts | 56° |
| 2026-04-28 11:35 | -1.30328 | 36.95036 | 5346 ft | 223 kts | 55° |
| 2026-04-28 11:36 | -1.29496 | 36.96302 | 5821 ft | 206 kts | 59° |
| 2026-04-28 11:36 | -1.28800 | 36.97457 | 6686 ft | 195 kts | 59° |
| 2026-04-28 11:36 | -1.28010 | 36.98642 | 6893 ft | 213 kts | 57° |
| 2026-04-28 11:36 | -1.27049 | 36.99823 | 6953 ft | 229 kts | 50° |
| 2026-04-28 11:37 | -1.25889 | 37.00992 | 6953 ft | 244 kts | 45° |
| 2026-04-28 11:37 | -1.24680 | 37.02169 | 7505 ft | 235 kts | 47° |
| 2026-04-28 11:37 | -1.23581 | 37.03343 | 7963 ft | 234 kts | 49° |
| 2026-04-28 11:37 | -1.22502 | 37.04569 | 8351 ft | 231 kts | 51° |
| 2026-04-28 11:38 | -1.21528 | 37.05829 | 8704 ft | 231 kts | 54° |
| 2026-04-28 11:38 | -1.20534 | 37.07214 | 8583 ft | 255 kts | 55° |
| 2026-04-28 11:38 | -1.19453 | 37.08682 | 8703 ft | 265 kts | 55° |
| 2026-04-28 11:38 | -1.18266 | 37.10020 | 9231 ft | 259 kts | 43° |
| 2026-04-28 11:39 | -1.16710 | 37.10995 | 9349 ft | 274 kts | 26° |
| 2026-04-28 11:39 | -1.14807 | 37.11353 | 9484 ft | 284 kts | 2° |
| 2026-04-28 11:39 | -1.12889 | 37.10899 | 9777 ft | 287 kts | 337° |
| 2026-04-28 11:39 | -1.11235 | 37.09692 | 9924 ft | 296 kts | 313° |
| 2026-04-28 11:40 | -1.10206 | 37.07936 | 10130 ft | 304 kts | 290° |
| 2026-04-28 11:40 | -1.09854 | 37.05845 | 10356 ft | 312 kts | 274° |
| 2026-04-28 11:40 | -1.09798 | 37.03649 | 10813 ft | 316 kts | 269° |
| 2026-04-28 11:40 | -1.09824 | 37.01415 | 11080 ft | 328 kts | 268° |
| 2026-04-28 11:41 | -1.09867 | 36.99126 | 11478 ft | 337 kts | 270° |
| 2026-04-28 11:41 | -1.09845 | 36.96728 | 11626 ft | 351 kts | 271° |
| 2026-04-28 11:41 | -1.09817 | 36.94236 | 11859 ft | 364 kts | 271° |
| 2026-04-28 11:41 | -1.09796 | 36.91659 | 11982 ft | 379 kts | 270° |
| 2026-04-28 11:42 | -1.09780 | 36.88989 | 12290 ft | 387 kts | 270° |
| 2026-04-28 11:42 | -1.09769 | 36.86259 | 12686 ft | 394 kts | 270° |
| 2026-04-28 11:42 | -1.09759 | 36.83472 | 13124 ft | 398 kts | 270° |
| 2026-04-28 11:42 | -1.09751 | 36.80709 | 13603 ft | 401 kts | 270° |
| 2026-04-28 11:43 | -1.09744 | 36.77924 | 14196 ft | 400 kts | 270° |
| 2026-04-28 11:43 | -1.09738 | 36.75137 | 14638 ft | 403 kts | 270° |
| 2026-04-28 11:43 | -1.09731 | 36.72309 | 15069 ft | 407 kts | 270° |
| 2026-04-28 11:43 | -1.09725 | 36.69470 | 15487 ft | 410 kts | 270° |
| 2026-04-28 11:44 | -1.09718 | 36.66622 | 15893 ft | 413 kts | 271° |
| 2026-04-28 11:44 | -1.09712 | 36.63734 | 16227 ft | 418 kts | 270° |
| 2026-04-28 11:44 | -1.09705 | 36.60825 | 16670 ft | 418 kts | 271° |
| 2026-04-28 11:44 | -1.09699 | 36.57915 | 17048 ft | 421 kts | 271° |
| 2026-04-28 11:45 | -1.09692 | 36.54973 | 17491 ft | 420 kts | 270° |
| 2026-04-28 11:45 | -1.09686 | 36.52076 | 18148 ft | 417 kts | 271° |
| 2026-04-28 11:45 | -1.09679 | 36.49188 | 18289 ft | 426 kts | 271° |
| 2026-04-28 11:45 | -1.09673 | 36.46204 | 18527 ft | 432 kts | 271° |
| 2026-04-28 11:46 | -1.09667 | 36.43186 | 18887 ft | 434 kts | 271° |
| 2026-04-28 11:46 | -1.09660 | 36.40165 | 19221 ft | 437 kts | 271° |
| 2026-04-28 11:46 | -1.09653 | 36.37108 | 19558 ft | 440 kts | 270° |
| 2026-04-28 11:46 | -1.09646 | 36.34045 | 19883 ft | 442 kts | 270° |
| 2026-04-28 11:47 | -1.09639 | 36.30973 | 20329 ft | 441 kts | 270° |
| 2026-04-28 11:47 | -1.09632 | 36.27948 | 20733 ft | 443 kts | 270° |
| 2026-04-28 11:47 | -1.09624 | 36.24868 | 21096 ft | 445 kts | 270° |
| 2026-04-28 11:47 | -1.09617 | 36.21779 | 21449 ft | 447 kts | 270° |
| 2026-04-28 11:48 | -1.09575 | 36.18667 | 21775 ft | 449 kts | 274° |
| 2026-04-28 11:48 | -1.09207 | 36.15561 | 22080 ft | 451 kts | 281° |
| 2026-04-28 11:48 | -1.08436 | 36.12531 | 22403 ft | 453 kts | 288° |
| 2026-04-28 11:48 | -1.07420 | 36.09521 | 22711 ft | 455 kts | 290° |
| 2026-04-28 11:49 | -1.06279 | 36.06590 | 23230 ft | 452 kts | 292° |
| 2026-04-28 11:49 | -1.05048 | 36.03688 | 23578 ft | 454 kts | 294° |
| 2026-04-28 11:49 | -1.03786 | 36.00814 | 23834 ft | 458 kts | 294° |
| 2026-04-28 11:49 | -1.02498 | 35.97871 | 24147 ft | 460 kts | 294° |
| 2026-04-28 11:50 | -1.01222 | 35.94934 | 24492 ft | 461 kts | 294° |
| 2026-04-28 11:50 | -0.99947 | 35.91983 | 24801 ft | 464 kts | 293° |
| 2026-04-28 11:50 | -0.98683 | 35.89050 | 25101 ft | 466 kts | 293° |
| 2026-04-28 11:50 | -0.97392 | 35.86051 | 25414 ft | 467 kts | 293° |
| 2026-04-28 11:51 | -0.96101 | 35.83046 | 25692 ft | 470 kts | 293° |
| 2026-04-28 11:51 | -0.94814 | 35.80047 | 25982 ft | 472 kts | 293° |
| 2026-04-28 11:51 | -0.93516 | 35.77023 | 26272 ft | 474 kts | 293° |
| 2026-04-28 11:51 | -0.92214 | 35.73989 | 26538 ft | 476 kts | 293° |
| 2026-04-28 11:52 | -0.90904 | 35.70936 | 26858 ft | 477 kts | 293° |
| 2026-04-28 11:52 | -0.89604 | 35.67908 | 27123 ft | 478 kts | 293° |
| 2026-04-28 11:52 | -0.88290 | 35.64845 | 27377 ft | 480 kts | 293° |
| 2026-04-28 11:52 | -0.86967 | 35.61764 | 27516 ft | 485 kts | 294° |
| 2026-04-28 11:53 | -0.85631 | 35.58651 | 27657 ft | 489 kts | 294° |
| 2026-04-28 11:53 | -0.84289 | 35.55524 | 27853 ft | 491 kts | 294° |
| 2026-04-28 11:53 | -0.82941 | 35.52382 | 28044 ft | 493 kts | 294° |
| 2026-04-28 11:53 | -0.81598 | 35.49255 | 28276 ft | 493 kts | 294° |
| 2026-04-28 11:54 | -0.80242 | 35.46094 | 28530 ft | 495 kts | 294° |
| 2026-04-28 11:54 | -0.78880 | 35.42921 | 28562 ft | 499 kts | 294° |
| 2026-04-28 11:54 | -0.77526 | 35.39767 | 28815 ft | 499 kts | 294° |
| 2026-04-28 11:54 | -0.76157 | 35.36578 | 28934 ft | 502 kts | 293° |
| 2026-04-28 11:55 | -0.73389 | 35.30130 | 29077 ft | 508 kts | 293° |
| 2026-04-28 11:55 | -0.70595 | 35.23621 | 29371 ft | 510 kts | 293° |
| 2026-04-28 11:56 | -0.67786 | 35.17079 | 29516 ft | 514 kts | 293° |
| 2026-04-28 11:56 | -0.64946 | 35.10463 | 29645 ft | 518 kts | 293° |
| 2026-04-28 11:57 | -0.62101 | 35.03836 | 29803 ft | 520 kts | 293° |
| 2026-04-28 11:57 | -0.59243 | 34.97178 | 30030 ft | 521 kts | 293° |
| 2026-04-28 11:58 | -0.57834 | 34.93898 | 30178 ft | 520 kts | 293° |
| 2026-04-28 11:58 | -0.56400 | 34.90558 | 30277 ft | 520 kts | 293° |
| 2026-04-28 11:58 | -0.53567 | 34.83959 | 30289 ft | 520 kts | 293° |
| 2026-04-28 11:59 | -0.50710 | 34.77305 | 30290 ft | 521 kts | 293° |
| 2026-04-28 11:59 | -0.47844 | 34.70629 | 30289 ft | 523 kts | 293° |
| 2026-04-28 12:00 | -0.44976 | 34.63951 | 30289 ft | 525 kts | 293° |
| 2026-04-28 12:00 | -0.42091 | 34.57231 | 30290 ft | 526 kts | 293° |
| 2026-04-28 12:01 | -0.39234 | 34.50580 | 30289 ft | 527 kts | 293° |
| 2026-04-28 12:01 | -0.36308 | 34.43812 | 30294 ft | 528 kts | 292° |
| 2026-04-28 12:02 | -0.33486 | 34.37051 | 30289 ft | 529 kts | 292° |
| 2026-04-28 12:02 | -0.30619 | 34.30253 | 30289 ft | 530 kts | 293° |
| 2026-04-28 12:03 | -0.27752 | 34.23475 | 30290 ft | 531 kts | 293° |
| 2026-04-28 12:03 | -0.24867 | 34.16656 | 30289 ft | 532 kts | 293° |
| 2026-04-28 12:04 | -0.21984 | 34.09844 | 30289 ft | 532 kts | 293° |
| 2026-04-28 12:04 | -0.19126 | 34.03071 | 30286 ft | 532 kts | 291° |
| 2026-04-28 12:05 | -0.17055 | 33.95997 | 30287 ft | 532 kts | 282° |
| 2026-04-28 12:05 | -0.15662 | 33.88767 | 30278 ft | 532 kts | 279° |
| 2026-04-28 12:06 | -0.14586 | 33.81430 | 30289 ft | 532 kts | 277° |
| 2026-04-28 12:06 | -0.13579 | 33.74157 | 30289 ft | 532 kts | 278° |
| 2026-04-28 12:07 | -0.12519 | 33.66749 | 30280 ft | 532 kts | 278° |
| 2026-04-28 12:07 | -0.11469 | 33.59477 | 30288 ft | 532 kts | 278° |
| 2026-04-28 12:08 | -0.10409 | 33.52163 | 30289 ft | 532 kts | 278° |
| 2026-04-28 12:08 | -0.09352 | 33.44864 | 30281 ft | 532 kts | 278° |
| 2026-04-28 12:09 | -0.08291 | 33.37551 | 30288 ft | 532 kts | 278° |
| 2026-04-28 12:09 | -0.07231 | 33.30235 | 30289 ft | 532 kts | 278° |
| 2026-04-28 12:10 | -0.06191 | 33.23065 | 30282 ft | 532 kts | 278° |
| 2026-04-28 12:10 | -0.05115 | 33.15645 | 30287 ft | 532 kts | 278° |
| 2026-04-28 12:11 | -0.04054 | 33.08322 | 30289 ft | 532 kts | 278° |
| 2026-04-28 12:11 | -0.03002 | 33.01065 | 30288 ft | 532 kts | 278° |
| 2026-04-28 12:12 | -0.01941 | 32.93749 | 30286 ft | 531 kts | 278° |
| 2026-04-28 12:12 | -0.00886 | 32.86471 | 30289 ft | 532 kts | 278° |
| 2026-04-28 12:13 | 0.00174 | 32.79165 | 30288 ft | 532 kts | 278° |
| 2026-04-28 12:13 | 0.01231 | 32.71874 | 30286 ft | 530 kts | 278° |
| 2026-04-28 12:14 | 0.02283 | 32.64612 | 30287 ft | 530 kts | 278° |
| 2026-04-28 12:14 | 0.03335 | 32.57357 | 30288 ft | 530 kts | 278° |
| 2026-04-28 12:15 | 0.04401 | 32.50089 | 30284 ft | 530 kts | 279° |
| 2026-04-28 12:15 | 0.06547 | 32.43077 | 30291 ft | 530 kts | 295° |
| 2026-04-28 12:16 | 0.10067 | 32.36599 | 30295 ft | 530 kts | 302° |
| 2026-04-28 12:16 | 0.14306 | 32.30490 | 30288 ft | 531 kts | 306° |
| 2026-04-28 12:17 | 0.18499 | 32.24514 | 30289 ft | 531 kts | 304° |
| 2026-04-28 12:17 | 0.22677 | 32.18404 | 30290 ft | 531 kts | 304° |
| 2026-04-28 12:18 | 0.26832 | 32.12327 | 30289 ft | 531 kts | 304° |
| 2026-04-28 12:18 | 0.30988 | 32.06252 | 30289 ft | 531 kts | 304° |
| 2026-04-28 12:19 | 0.35161 | 32.00128 | 30290 ft | 531 kts | 304° |
| 2026-04-28 12:19 | 0.39299 | 31.94026 | 30289 ft | 531 kts | 304° |
| 2026-04-28 12:20 | 0.43447 | 31.87909 | 30289 ft | 531 kts | 304° |
| 2026-04-28 12:20 | 0.47614 | 31.81764 | 30289 ft | 531 kts | 304° |
| 2026-04-28 12:21 | 0.51733 | 31.75692 | 30289 ft | 531 kts | 304° |
| 2026-04-28 12:21 | 0.55901 | 31.69544 | 30289 ft | 531 kts | 304° |
| 2026-04-28 12:22 | 0.60040 | 31.63439 | 30289 ft | 532 kts | 304° |
| 2026-04-28 12:22 | 0.64190 | 31.57319 | 30289 ft | 532 kts | 304° |
| 2026-04-28 12:23 | 0.67647 | 31.52233 | 30290 ft | 532 kts | 304° |
| 2026-04-28 12:23 | 0.72476 | 31.45161 | 30223 ft | 533 kts | 304° |
| 2026-04-28 12:24 | 0.73883 | 31.43099 | 30069 ft | 532 kts | 304° |
| 2026-04-28 12:24 | 0.75972 | 31.40038 | 30023 ft | 533 kts | 304° |
| 2026-04-28 12:24 | 0.80137 | 31.33932 | 30019 ft | 534 kts | 304° |
| 2026-04-28 12:25 | 0.84309 | 31.27815 | 30018 ft | 534 kts | 304° |
| 2026-04-28 12:25 | 0.88504 | 31.21666 | 30017 ft | 534 kts | 304° |
| 2026-04-28 12:26 | 0.92686 | 31.15535 | 30014 ft | 534 kts | 304° |
| 2026-04-28 12:26 | 0.96845 | 31.09437 | 30012 ft | 534 kts | 304° |
| 2026-04-28 12:27 | 1.01025 | 31.03308 | 30012 ft | 534 kts | 304° |
| 2026-04-28 12:27 | 1.05205 | 30.97177 | 30013 ft | 534 kts | 304° |
| 2026-04-28 12:28 | 1.09388 | 30.91043 | 30009 ft | 534 kts | 305° |
| 2026-04-28 12:28 | 1.13595 | 30.84874 | 30008 ft | 534 kts | 304° |
| 2026-04-28 12:29 | 1.19859 | 30.75686 | 30008 ft | 534 kts | 304° |
| 2026-04-28 12:30 | 1.24041 | 30.69550 | 30008 ft | 534 kts | 304° |
| 2026-04-28 12:30 | 1.28237 | 30.63419 | 30005 ft | 534 kts | 305° |
| 2026-04-28 12:31 | 1.32471 | 30.57389 | 30006 ft | 534 kts | 306° |
| 2026-04-28 12:31 | 1.36758 | 30.51270 | 30005 ft | 534 kts | 306° |
| 2026-04-28 12:32 | 1.40977 | 30.45244 | 30005 ft | 534 kts | 305° |
| 2026-04-28 12:32 | 1.45225 | 30.39170 | 30020 ft | 534 kts | 305° |
| 2026-04-28 12:33 | 1.49477 | 30.33090 | 30011 ft | 534 kts | 306° |
| 2026-04-28 12:33 | 1.53734 | 30.27001 | 30006 ft | 534 kts | 306° |
| 2026-04-28 12:34 | 1.58119 | 30.21018 | 30027 ft | 533 kts | 309° |
| 2026-04-28 12:34 | 1.62959 | 30.15464 | 30026 ft | 533 kts | 313° |
| 2026-04-28 12:35 | 1.67958 | 30.09969 | 30017 ft | 534 kts | 313° |
| 2026-04-28 12:35 | 1.72869 | 30.04415 | 30003 ft | 533 kts | 312° |
| 2026-04-28 12:36 | 1.77761 | 29.98855 | 30159 ft | 530 kts | 311° |
| 2026-04-28 12:36 | 1.80187 | 29.96096 | 30262 ft | 529 kts | 311° |
| 2026-04-28 12:36 | 1.82623 | 29.93325 | 30286 ft | 529 kts | 311° |
| 2026-04-28 12:37 | 1.87484 | 29.87796 | 30264 ft | 530 kts | 311° |
| 2026-04-28 12:37 | 1.92382 | 29.82230 | 30257 ft | 532 kts | 311° |
| 2026-04-28 12:38 | 1.97338 | 29.76651 | 30287 ft | 532 kts | 311° |
| 2026-04-28 12:38 | 2.02273 | 29.71114 | 30288 ft | 532 kts | 312° |
| 2026-04-28 12:39 | 2.07244 | 29.65632 | 30289 ft | 533 kts | 312° |
| 2026-04-28 12:39 | 2.12215 | 29.60133 | 30288 ft | 533 kts | 312° |
| 2026-04-28 12:40 | 2.17184 | 29.54632 | 30288 ft | 533 kts | 312° |
| 2026-04-28 12:40 | 2.22156 | 29.49131 | 30288 ft | 533 kts | 312° |
| 2026-04-28 12:41 | 2.27148 | 29.43608 | 30288 ft | 533 kts | 312° |
| 2026-04-28 12:41 | 2.32123 | 29.38100 | 30289 ft | 533 kts | 312° |
| 2026-04-28 12:42 | 2.37096 | 29.32593 | 30288 ft | 533 kts | 312° |
| 2026-04-28 12:42 | 2.42064 | 29.27090 | 30289 ft | 533 kts | 312° |
| 2026-04-28 12:43 | 2.47029 | 29.21592 | 30288 ft | 533 kts | 312° |
| 2026-04-28 12:43 | 2.52006 | 29.16082 | 30289 ft | 533 kts | 312° |
| 2026-04-28 12:44 | 2.56943 | 29.10613 | 30288 ft | 533 kts | 312° |
| 2026-04-28 12:44 | 2.61940 | 29.05076 | 30281 ft | 533 kts | 312° |
| 2026-04-28 12:45 | 2.66921 | 28.99557 | 30203 ft | 534 kts | 312° |
| 2026-04-28 12:45 | 2.71909 | 28.94031 | 30202 ft | 535 kts | 312° |
| 2026-04-28 12:46 | 2.76850 | 28.88554 | 30236 ft | 534 kts | 312° |
| 2026-04-28 12:46 | 2.81829 | 28.83032 | 30239 ft | 534 kts | 312° |
| 2026-04-28 12:46 | 2.84319 | 28.80271 | 30107 ft | 534 kts | 312° |
| 2026-04-28 12:47 | 2.86801 | 28.77519 | 30080 ft | 535 kts | 312° |
| 2026-04-28 12:47 | 2.91804 | 28.71977 | 30072 ft | 536 kts | 312° |
| 2026-04-28 12:48 | 2.96803 | 28.66442 | 30092 ft | 536 kts | 312° |
| 2026-04-28 12:48 | 3.01773 | 28.60935 | 30075 ft | 536 kts | 312° |
| 2026-04-28 12:49 | 3.06776 | 28.55389 | 30076 ft | 536 kts | 312° |
| 2026-04-28 12:49 | 3.11803 | 28.49817 | 30075 ft | 536 kts | 312° |
| 2026-04-28 12:50 | 3.16775 | 28.44309 | 30076 ft | 536 kts | 312° |
| 2026-04-28 12:50 | 3.21804 | 28.38735 | 30074 ft | 537 kts | 312° |
| 2026-04-28 12:51 | 3.26802 | 28.33194 | 30058 ft | 537 kts | 312° |
| 2026-04-28 12:51 | 3.31823 | 28.27626 | 30053 ft | 538 kts | 312° |
| 2026-04-28 12:52 | 3.36847 | 28.22054 | 30024 ft | 539 kts | 312° |
| 2026-04-28 12:52 | 3.41866 | 28.16486 | 30024 ft | 539 kts | 312° |
| 2026-04-28 12:53 | 3.46884 | 28.10918 | 30030 ft | 538 kts | 312° |
| 2026-04-28 12:53 | 3.51856 | 28.05400 | 30051 ft | 539 kts | 312° |
| 2026-04-28 12:54 | 3.56879 | 27.99825 | 30054 ft | 539 kts | 312° |
| 2026-04-28 12:54 | 3.61896 | 27.94256 | 30058 ft | 539 kts | 312° |
| 2026-04-28 12:55 | 3.66955 | 27.88639 | 30055 ft | 539 kts | 312° |
| 2026-04-28 12:55 | 3.71966 | 27.83074 | 30037 ft | 539 kts | 312° |
| 2026-04-28 12:56 | 3.76996 | 27.77487 | 30039 ft | 539 kts | 312° |
| 2026-04-28 12:56 | 3.82017 | 27.71909 | 30047 ft | 539 kts | 312° |
| 2026-04-28 12:57 | 3.87035 | 27.66333 | 30046 ft | 539 kts | 311° |
| 2026-04-28 12:57 | 3.92057 | 27.60752 | 29996 ft | 540 kts | 311° |
| 2026-04-28 12:58 | 3.97081 | 27.55167 | 29994 ft | 540 kts | 311° |
| 2026-04-28 12:58 | 4.02103 | 27.49585 | 29994 ft | 540 kts | 311° |
| 2026-04-28 12:59 | 4.07139 | 27.43984 | 29994 ft | 540 kts | 311° |
| 2026-04-28 12:59 | 4.12165 | 27.38394 | 29994 ft | 540 kts | 311° |
| 2026-04-28 13:00 | 4.17185 | 27.32810 | 29994 ft | 540 kts | 311° |
| 2026-04-28 13:00 | 4.22208 | 27.27221 | 29994 ft | 540 kts | 311° |
| 2026-04-28 13:01 | 4.27245 | 27.21615 | 29994 ft | 540 kts | 311° |
| 2026-04-28 13:01 | 4.32272 | 27.16019 | 29994 ft | 540 kts | 311° |
| 2026-04-28 13:02 | 4.37235 | 27.10493 | 29994 ft | 540 kts | 311° |
| 2026-04-28 13:02 | 4.41453 | 27.05795 | 30020 ft | 538 kts | 312° |
| 2026-04-28 13:03 | 4.46462 | 27.00216 | 30021 ft | 537 kts | 312° |
| 2026-04-28 13:03 | 4.51450 | 26.94659 | 30021 ft | 537 kts | 312° |
| 2026-04-28 13:04 | 4.56450 | 26.89087 | 30023 ft | 537 kts | 312° |
| 2026-04-28 13:04 | 4.61450 | 26.83514 | 30022 ft | 537 kts | 312° |
| 2026-04-28 13:05 | 4.66482 | 26.77904 | 30022 ft | 537 kts | 312° |
| 2026-04-28 13:05 | 4.71471 | 26.72340 | 30022 ft | 537 kts | 312° |
| 2026-04-28 13:06 | 4.76464 | 26.66772 | 30023 ft | 537 kts | 312° |
| 2026-04-28 13:06 | 4.81429 | 26.61232 | 30023 ft | 537 kts | 312° |
| 2026-04-28 13:07 | 4.86412 | 26.55672 | 30023 ft | 537 kts | 312° |
| 2026-04-28 13:07 | 4.91415 | 26.50087 | 30024 ft | 537 kts | 312° |
| 2026-04-28 13:08 | 4.96407 | 26.44513 | 30023 ft | 537 kts | 312° |
| 2026-04-28 13:08 | 5.01399 | 26.38939 | 30024 ft | 537 kts | 312° |
| 2026-04-28 13:09 | 5.06387 | 26.33371 | 30023 ft | 537 kts | 312° |
| 2026-04-28 13:09 | 5.11374 | 26.27799 | 30024 ft | 537 kts | 312° |
| 2026-04-28 13:10 | 5.16332 | 26.22255 | 29815 ft | 537 kts | 312° |
| 2026-04-28 13:10 | 5.21303 | 26.16695 | 29761 ft | 537 kts | 312° |
| 2026-04-28 13:11 | 5.26312 | 26.11097 | 29757 ft | 537 kts | 312° |
| 2026-04-28 13:11 | 5.31350 | 26.05495 | 29758 ft | 537 kts | 312° |
| 2026-04-28 13:12 | 5.36302 | 25.99982 | 29757 ft | 537 kts | 312° |
| 2026-04-28 13:12 | 5.41311 | 25.94404 | 29758 ft | 537 kts | 312° |
| 2026-04-28 13:13 | 5.46317 | 25.88828 | 29757 ft | 537 kts | 312° |
| 2026-04-28 13:13 | 5.51317 | 25.83262 | 29758 ft | 537 kts | 312° |
| 2026-04-28 13:14 | 5.56320 | 25.77690 | 29758 ft | 537 kts | 312° |
| 2026-04-28 13:14 | 5.61294 | 25.72152 | 29758 ft | 537 kts | 312° |
| 2026-04-28 13:15 | 5.66282 | 25.66589 | 29758 ft | 537 kts | 312° |
| 2026-04-28 13:15 | 5.71285 | 25.61007 | 29757 ft | 537 kts | 312° |
| 2026-04-28 13:16 | 5.76278 | 25.55436 | 29758 ft | 537 kts | 312° |
| 2026-04-28 13:16 | 5.81279 | 25.49845 | 29757 ft | 537 kts | 312° |
| 2026-04-28 13:17 | 5.86261 | 25.44267 | 29758 ft | 537 kts | 312° |
| 2026-04-28 13:17 | 5.91218 | 25.38709 | 29758 ft | 537 kts | 312° |
| 2026-04-28 13:18 | 5.96228 | 25.33089 | 29757 ft | 537 kts | 312° |
| 2026-04-28 13:18 | 6.01185 | 25.27530 | 29758 ft | 537 kts | 312° |
| 2026-04-28 13:19 | 6.06176 | 25.21941 | 29757 ft | 537 kts | 312° |
| 2026-04-28 13:19 | 6.11165 | 25.16356 | 29758 ft | 537 kts | 312° |
| 2026-04-28 13:20 | 6.16153 | 25.10766 | 29758 ft | 537 kts | 312° |
| 2026-04-28 13:20 | 6.21136 | 25.05181 | 29757 ft | 537 kts | 312° |
| 2026-04-28 13:21 | 6.26130 | 24.99583 | 29758 ft | 537 kts | 312° |
| 2026-04-28 13:21 | 6.31121 | 24.93996 | 29757 ft | 537 kts | 312° |
| 2026-04-28 13:22 | 6.36145 | 24.88364 | 29758 ft | 537 kts | 312° |
| 2026-04-28 13:22 | 6.41107 | 24.82799 | 29757 ft | 537 kts | 312° |
| 2026-04-28 13:23 | 6.46093 | 24.77204 | 29758 ft | 537 kts | 312° |
| 2026-04-28 13:23 | 6.51085 | 24.71600 | 29758 ft | 537 kts | 312° |
| 2026-04-28 13:24 | 6.56065 | 24.66009 | 29757 ft | 537 kts | 312° |
| 2026-04-28 13:24 | 6.61055 | 24.60404 | 29758 ft | 537 kts | 312° |
| 2026-04-28 13:25 | 6.66045 | 24.54797 | 29757 ft | 538 kts | 312° |
| 2026-04-28 13:25 | 6.71030 | 24.49194 | 29758 ft | 538 kts | 312° |
| 2026-04-28 13:26 | 6.76014 | 24.43590 | 29758 ft | 538 kts | 311° |
| 2026-04-28 13:26 | 6.80985 | 24.37999 | 29848 ft | 535 kts | 311° |
| 2026-04-28 13:27 | 6.85937 | 24.32429 | 29858 ft | 534 kts | 311° |
| 2026-04-28 13:27 | 6.90917 | 24.26823 | 29861 ft | 534 kts | 311° |
| 2026-04-28 13:28 | 6.95864 | 24.21254 | 29860 ft | 534 kts | 311° |
| 2026-04-28 13:28 | 7.00808 | 24.15685 | 29860 ft | 534 kts | 311° |
| 2026-04-28 13:29 | 7.05768 | 24.10098 | 29867 ft | 534 kts | 311° |
| 2026-04-28 13:29 | 7.10706 | 24.04532 | 29867 ft | 534 kts | 311° |
| 2026-04-28 13:30 | 7.15656 | 23.98951 | 29867 ft | 534 kts | 311° |
| 2026-04-28 13:30 | 7.20590 | 23.93385 | 29867 ft | 534 kts | 311° |
| 2026-04-28 13:31 | 7.27987 | 23.85047 | 29866 ft | 534 kts | 311° |
| 2026-04-28 13:31 | 7.32963 | 23.79427 | 29866 ft | 534 kts | 311° |
| 2026-04-28 13:32 | 7.37893 | 23.73856 | 29867 ft | 534 kts | 311° |
| 2026-04-28 13:32 | 7.42840 | 23.68266 | 29863 ft | 534 kts | 311° |
| 2026-04-28 13:33 | 7.47780 | 23.62687 | 29863 ft | 534 kts | 311° |
| 2026-04-28 13:33 | 7.52728 | 23.57095 | 29864 ft | 534 kts | 311° |
| 2026-04-28 13:34 | 7.57670 | 23.51507 | 29866 ft | 534 kts | 311° |
| 2026-04-28 13:34 | 7.62599 | 23.45930 | 29867 ft | 534 kts | 311° |
| 2026-04-28 13:35 | 7.67543 | 23.40335 | 29867 ft | 534 kts | 311° |
| 2026-04-28 13:35 | 7.72491 | 23.34745 | 29867 ft | 534 kts | 311° |
| 2026-04-28 13:36 | 7.77423 | 23.29164 | 29864 ft | 534 kts | 311° |
| 2026-04-28 13:36 | 7.82364 | 23.23569 | 29864 ft | 534 kts | 311° |
| 2026-04-28 13:37 | 7.87303 | 23.17973 | 29861 ft | 534 kts | 311° |
| 2026-04-28 13:37 | 7.92239 | 23.12379 | 29859 ft | 534 kts | 311° |
| 2026-04-28 13:38 | 7.97176 | 23.06787 | 29858 ft | 534 kts | 311° |
| 2026-04-28 13:38 | 8.02117 | 23.01184 | 29859 ft | 534 kts | 311° |
| 2026-04-28 13:39 | 8.07059 | 22.95571 | 29857 ft | 534 kts | 311° |
| 2026-04-28 13:39 | 8.11957 | 22.90008 | 29857 ft | 534 kts | 311° |
| 2026-04-28 13:40 | 8.17007 | 22.84446 | 29857 ft | 534 kts | 315° |
| 2026-04-28 13:40 | 8.22435 | 22.79392 | 29857 ft | 534 kts | 319° |
| 2026-04-28 13:41 | 8.28078 | 22.74536 | 29858 ft | 534 kts | 319° |
| 2026-04-28 13:41 | 8.33697 | 22.69621 | 29863 ft | 534 kts | 319° |
| 2026-04-28 13:42 | 8.39268 | 22.64679 | 29864 ft | 534 kts | 319° |
| 2026-04-28 13:42 | 8.44811 | 22.59751 | 29862 ft | 534 kts | 319° |
| 2026-04-28 13:43 | 8.50386 | 22.54792 | 29878 ft | 534 kts | 319° |
| 2026-04-28 13:43 | 8.55978 | 22.49810 | 29881 ft | 533 kts | 319° |
| 2026-04-28 13:44 | 8.61555 | 22.44838 | 29874 ft | 534 kts | 319° |
| 2026-04-28 13:44 | 8.67136 | 22.39861 | 29874 ft | 534 kts | 319° |
| 2026-04-28 13:45 | 8.72700 | 22.34896 | 29874 ft | 534 kts | 319° |
| 2026-04-28 13:45 | 8.78251 | 22.29940 | 29874 ft | 534 kts | 319° |
| 2026-04-28 13:46 | 8.82892 | 22.25796 | 29878 ft | 534 kts | 319° |
| 2026-04-28 13:46 | 8.88448 | 22.20832 | 29881 ft | 534 kts | 319° |
| 2026-04-28 13:47 | 8.94011 | 22.15860 | 29881 ft | 534 kts | 318° |